Llantrisant, United Kingdom
Current Conditions -  °F | °C
As of 11:20 PM on Monday 22 Dec 2014 (Local Time) from EGFF Reporting Station
Overcast Overcast  
Wind Chill: 11°   Ceiling: 3100
Heat Index: 11°   Visibility: 6mi
Dew Point:   Wind: 22mph
Humidity: 88%   Direction: 260°W
Pressure: 30.06"   Gusts: NA
Location:  51.54°N, 3.37°W
Report Text: EGFF 222320Z AUTO 26019KT 9999 OVC031 11/09 Q1018
Loading
Personal Weather Stations






























Interactive Weather Map New forecast layout! Learn more

10-Day Weather Forecast

Advertisements
Track Severe Weather on mobile